sensor_id;sensor_type;location;lat;lon;timestamp;temperature;humidity
39525;DHT22;25203;50.754;6.978;2023-07-13T00:01:33;15.30;99.90
39525;DHT22;25203;50.754;6.978;2023-07-13T00:03:33;15.30;99.90
39525;DHT22;25203;50.754;6.978;2023-07-13T00:05:35;15.20;99.90
39525;DHT22;25203;50.754;6.978;2023-07-13T00:07:36;15.20;99.30
39525;DHT22;25203;50.754;6.978;2023-07-13T00:09:37;15.20;99.40
39525;DHT22;25203;50.754;6.978;2023-07-13T00:11:37;15.30;99.40
39525;DHT22;25203;50.754;6.978;2023-07-13T00:13:38;15.30;99.40
39525;DHT22;25203;50.754;6.978;2023-07-13T00:15:39;15.30;99.20
39525;DHT22;25203;50.754;6.978;2023-07-13T00:17:40;15.30;99.50
39525;DHT22;25203;50.754;6.978;2023-07-13T00:19:41;15.30;99.40
39525;DHT22;25203;50.754;6.978;2023-07-13T00:21:42;15.30;99.70
39525;DHT22;25203;50.754;6.978;2023-07-13T00:23:42;15.20;99.90
39525;DHT22;25203;50.754;6.978;2023-07-13T00:25:43;15.20;99.90
39525;DHT22;25203;50.754;6.978;2023-07-13T00:27:44;15.10;99.90
39525;DHT22;25203;50.754;6.978;2023-07-13T00:29:45;15.20;99.90
39525;DHT22;25203;50.754;6.978;2023-07-13T00:31:45;15.20;99.60
39525;DHT22;25203;50.754;6.978;2023-07-13T00:33:46;15.30;99.70
39525;DHT22;25203;50.754;6.978;2023-07-13T00:35:47;15.30;99.60
39525;DHT22;25203;50.754;6.978;2023-07-13T00:37:48;15.30;99.40
39525;DHT22;25203;50.754;6.978;2023-07-13T00:39:48;15.40;99.40
39525;DHT22;25203;50.754;6.978;2023-07-13T00:41:49;15.40;99.40
39525;DHT22;25203;50.754;6.978;2023-07-13T00:43:50;15.40;99.30
39525;DHT22;25203;50.754;6.978;2023-07-13T00:47:51;15.40;99.10
39525;DHT22;25203;50.754;6.978;2023-07-13T00:49:52;15.40;99.10
39525;DHT22;25203;50.754;6.978;2023-07-13T00:52:07;15.40;99.30
39525;DHT22;25203;50.754;6.978;2023-07-13T00:54:13;15.30;99.50
39525;DHT22;25203;50.754;6.978;2023-07-13T00:56:15;15.30;99.60
39525;DHT22;25203;50.754;6.978;2023-07-13T00:58:16;15.20;99.50
39525;DHT22;25203;50.754;6.978;2023-07-13T01:00:17;15.20;99.80
39525;DHT22;25203;50.754;6.978;2023-07-13T01:02:18;15.20;99.90
39525;DHT22;25203;50.754;6.978;2023-07-13T01:04:19;15.20;99.90
39525;DHT22;25203;50.754;6.978;2023-07-13T01:06:20;15.10;99.90
39525;DHT22;25203;50.754;6.978;2023-07-13T01:08:21;14.90;99.90
39525;DHT22;25203;50.754;6.978;2023-07-13T01:10:23;14.80;99.90
39525;DHT22;25203;50.754;6.978;2023-07-13T01:12:24;14.80;99.90
39525;DHT22;25203;50.754;6.978;2023-07-13T01:14:24;14.70;99.90
39525;DHT22;25203;50.754;6.978;2023-07-13T01:16:33;14.70;99.90
39525;DHT22;25203;50.754;6.978;2023-07-13T01:18:34;14.50;99.90
39525;DHT22;25203;50.754;6.978;2023-07-13T01:20:35;14.40;99.90
39525;DHT22;25203;50.754;6.978;2023-07-13T01:22:36;14.30;99.90
39525;DHT22;25203;50.754;6.978;2023-07-13T01:24:39;14.20;99.90
39525;DHT22;25203;50.754;6.978;2023-07-13T01:26:40;14.10;99.90
39525;DHT22;25203;50.754;6.978;2023-07-13T01:28:40;14.00;99.90
39525;DHT22;25203;50.754;6.978;2023-07-13T01:30:41;13.90;99.90
39525;DHT22;25203;50.754;6.978;2023-07-13T01:32:41;13.80;99.90
39525;DHT22;25203;50.754;6.978;2023-07-13T01:34:42;13.80;99.90
39525;DHT22;25203;50.754;6.978;2023-07-13T01:36:44;13.80;99.90
39525;DHT22;25203;50.754;6.978;2023-07-13T01:38:45;13.70;99.90
39525;DHT22;25203;50.754;6.978;2023-07-13T01:40:45;13.70;99.90
39525;DHT22;25203;50.754;6.978;2023-07-13T01:42:46;13.60;99.90
39525;DHT22;25203;50.754;6.978;2023-07-13T01:44:46;13.60;99.90
39525;DHT22;25203;50.754;6.978;2023-07-13T01:46:47;13.60;99.90
39525;DHT22;25203;50.754;6.978;2023-07-13T01:48:48;13.70;99.90
39525;DHT22;25203;50.754;6.978;2023-07-13T01:50:48;13.80;99.90
39525;DHT22;25203;50.754;6.978;2023-07-13T01:52:49;13.80;99.90
39525;DHT22;25203;50.754;6.978;2023-07-13T01:54:50;13.80;99.90
39525;DHT22;25203;50.754;6.978;2023-07-13T01:56:50;13.80;99.90
39525;DHT22;25203;50.754;6.978;2023-07-13T01:58:52;13.90;99.90
39525;DHT22;25203;50.754;6.978;2023-07-13T02:00:52;14.10;99.90
39525;DHT22;25203;50.754;6.978;2023-07-13T02:02:53;14.20;99.90
39525;DHT22;25203;50.754;6.978;2023-07-13T02:04:53;14.30;99.90
39525;DHT22;25203;50.754;6.978;2023-07-13T02:06:54;14.40;99.90
39525;DHT22;25203;50.754;6.978;2023-07-13T02:08:55;14.40;99.90
39525;DHT22;25203;50.754;6.978;2023-07-13T02:10:56;14.50;99.90
39525;DHT22;25203;50.754;6.978;2023-07-13T02:12:57;14.60;99.90
39525;DHT22;25203;50.754;6.978;2023-07-13T02:14:57;14.60;99.90
39525;DHT22;25203;50.754;6.978;2023-07-13T02:16:58;14.70;99.90
39525;DHT22;25203;50.754;6.978;2023-07-13T02:18:58;14.70;99.90
39525;DHT22;25203;50.754;6.978;2023-07-13T02:21:01;14.70;99.90
39525;DHT22;25203;50.754;6.978;2023-07-13T02:23:03;14.60;99.90
39525;DHT22;25203;50.754;6.978;2023-07-13T02:25:04;14.50;99.90
39525;DHT22;25203;50.754;6.978;2023-07-13T02:27:05;14.40;99.90
39525;DHT22;25203;50.754;6.978;2023-07-13T02:29:06;14.30;99.90
39525;DHT22;25203;50.754;6.978;2023-07-13T02:31:08;14.20;99.90
39525;DHT22;25203;50.754;6.978;2023-07-13T02:33:08;14.10;99.90
39525;DHT22;25203;50.754;6.978;2023-07-13T02:35:09;13.90;99.90
39525;DHT22;25203;50.754;6.978;2023-07-13T02:37:10;13.80;99.90
39525;DHT22;25203;50.754;6.978;2023-07-13T02:39:11;13.80;99.90
39525;DHT22;25203;50.754;6.978;2023-07-13T02:41:12;13.70;99.90
39525;DHT22;25203;50.754;6.978;2023-07-13T02:43:13;13.70;99.90
39525;DHT22;25203;50.754;6.978;2023-07-13T02:45:13;13.60;99.90
39525;DHT22;25203;50.754;6.978;2023-07-13T02:47:14;13.60;99.90
39525;DHT22;25203;50.754;6.978;2023-07-13T02:49:15;13.70;99.90
39525;DHT22;25203;50.754;6.978;2023-07-13T02:51:15;13.70;99.90
39525;DHT22;25203;50.754;6.978;2023-07-13T02:53:16;13.70;99.90
39525;DHT22;25203;50.754;6.978;2023-07-13T02:55:16;13.80;99.90
39525;DHT22;25203;50.754;6.978;2023-07-13T02:57:17;13.80;99.90
39525;DHT22;25203;50.754;6.978;2023-07-13T02:59:18;13.80;99.90
39525;DHT22;25203;50.754;6.978;2023-07-13T03:01:18;13.80;99.90
39525;DHT22;25203;50.754;6.978;2023-07-13T03:03:19;13.80;99.90
39525;DHT22;25203;50.754;6.978;2023-07-13T03:05:19;13.80;99.90
39525;DHT22;25203;50.754;6.978;2023-07-13T03:07:20;13.80;99.90
39525;DHT22;25203;50.754;6.978;2023-07-13T03:09:20;13.70;99.90
39525;DHT22;25203;50.754;6.978;2023-07-13T03:11:21;13.70;99.90
39525;DHT22;25203;50.754;6.978;2023-07-13T03:13:22;13.70;99.90
39525;DHT22;25203;50.754;6.978;2023-07-13T03:15:22;13.80;99.90
39525;DHT22;25203;50.754;6.978;2023-07-13T03:17:23;13.80;99.90
39525;DHT22;25203;50.754;6.978;2023-07-13T03:19:24;13.80;99.90
39525;DHT22;25203;50.754;6.978;2023-07-13T03:21:24;13.90;99.90
39525;DHT22;25203;50.754;6.978;2023-07-13T03:23:25;13.90;99.90
39525;DHT22;25203;50.754;6.978;2023-07-13T03:25:26;13.90;99.90
39525;DHT22;25203;50.754;6.978;2023-07-13T03:27:26;13.90;99.90
39525;DHT22;25203;50.754;6.978;2023-07-13T03:29:27;13.90;99.90
39525;DHT22;25203;50.754;6.978;2023-07-13T03:31:29;13.90;99.90
39525;DHT22;25203;50.754;6.978;2023-07-13T03:33:30;13.90;99.90
39525;DHT22;25203;50.754;6.978;2023-07-13T03:35:31;13.90;99.90
39525;DHT22;25203;50.754;6.978;2023-07-13T03:37:33;13.80;99.90
39525;DHT22;25203;50.754;6.978;2023-07-13T03:39:33;13.80;99.90
39525;DHT22;25203;50.754;6.978;2023-07-13T03:41:34;13.70;99.90
39525;DHT22;25203;50.754;6.978;2023-07-13T03:43:35;13.70;99.90
39525;DHT22;25203;50.754;6.978;2023-07-13T03:45:37;13.70;99.90
39525;DHT22;25203;50.754;6.978;2023-07-13T03:47:38;13.70;99.90
39525;DHT22;25203;50.754;6.978;2023-07-13T03:49:39;13.70;99.90
39525;DHT22;25203;50.754;6.978;2023-07-13T03:51:39;13.80;99.90
39525;DHT22;25203;50.754;6.978;2023-07-13T03:53:42;13.80;99.90
39525;DHT22;25203;50.754;6.978;2023-07-13T03:55:43;13.80;99.90
39525;DHT22;25203;50.754;6.978;2023-07-13T03:57:44;13.80;99.90
39525;DHT22;25203;50.754;6.978;2023-07-13T03:59:45;13.80;99.90
39525;DHT22;25203;50.754;6.978;2023-07-13T04:01:47;13.70;99.90
39525;DHT22;25203;50.754;6.978;2023-07-13T04:03:47;13.80;99.90
39525;DHT22;25203;50.754;6.978;2023-07-13T04:05:49;13.70;99.90
39525;DHT22;25203;50.754;6.978;2023-07-13T04:07:49;13.80;99.90
39525;DHT22;25203;50.754;6.978;2023-07-13T04:09:50;13.80;99.90
39525;DHT22;25203;50.754;6.978;2023-07-13T04:11:51;13.90;99.90
39525;DHT22;25203;50.754;6.978;2023-07-13T04:13:52;13.80;99.90
39525;DHT22;25203;50.754;6.978;2023-07-13T04:15:53;13.90;99.90
39525;DHT22;25203;50.754;6.978;2023-07-13T04:17:54;13.90;99.90
39525;DHT22;25203;50.754;6.978;2023-07-13T04:19:54;13.90;99.90
39525;DHT22;25203;50.754;6.978;2023-07-13T04:21:55;13.90;99.90
39525;DHT22;25203;50.754;6.978;2023-07-13T04:23:56;13.90;99.90
39525;DHT22;25203;50.754;6.978;2023-07-13T04:25:56;13.90;99.90
39525;DHT22;25203;50.754;6.978;2023-07-13T04:27:57;14.00;99.90
39525;DHT22;25203;50.754;6.978;2023-07-13T04:29:58;14.00;99.90
39525;DHT22;25203;50.754;6.978;2023-07-13T04:31:58;14.00;99.90
39525;DHT22;25203;50.754;6.978;2023-07-13T04:33:59;14.00;99.90
39525;DHT22;25203;50.754;6.978;2023-07-13T04:35:59;14.10;99.90
39525;DHT22;25203;50.754;6.978;2023-07-13T04:38:02;14.10;99.90
39525;DHT22;25203;50.754;6.978;2023-07-13T04:40:03;14.20;99.90
39525;DHT22;25203;50.754;6.978;2023-07-13T04:42:04;14.30;99.90
39525;DHT22;25203;50.754;6.978;2023-07-13T04:44:05;14.40;99.90
39525;DHT22;25203;50.754;6.978;2023-07-13T04:46:10;14.50;99.90
39525;DHT22;25203;50.754;6.978;2023-07-13T04:48:11;14.50;99.90
39525;DHT22;25203;50.754;6.978;2023-07-13T04:50:14;14.60;99.90
39525;DHT22;25203;50.754;6.978;2023-07-13T04:52:21;14.70;99.90
39525;DHT22;25203;50.754;6.978;2023-07-13T04:54:21;14.80;99.90
39525;DHT22;25203;50.754;6.978;2023-07-13T04:56:22;14.80;99.90
39525;DHT22;25203;50.754;6.978;2023-07-13T04:58:23;14.90;99.90
39525;DHT22;25203;50.754;6.978;2023-07-13T05:00:25;15.00;99.90
39525;DHT22;25203;50.754;6.978;2023-07-13T05:02:26;15.00;99.90
39525;DHT22;25203;50.754;6.978;2023-07-13T05:04:28;15.10;99.90
39525;DHT22;25203;50.754;6.978;2023-07-13T05:06:29;15.10;99.90
39525;DHT22;25203;50.754;6.978;2023-07-13T05:08:31;15.10;99.90
39525;DHT22;25203;50.754;6.978;2023-07-13T05:10:31;15.20;99.90
39525;DHT22;25203;50.754;6.978;2023-07-13T05:12:32;15.20;99.90
39525;DHT22;25203;50.754;6.978;2023-07-13T05:14:32;15.30;99.90
39525;DHT22;25203;50.754;6.978;2023-07-13T05:16:33;15.30;99.90
39525;DHT22;25203;50.754;6.978;2023-07-13T05:18:34;15.40;99.90
39525;DHT22;25203;50.754;6.978;2023-07-13T05:20:34;15.40;99.90
39525;DHT22;25203;50.754;6.978;2023-07-13T05:22:35;15.50;99.90
39525;DHT22;25203;50.754;6.978;2023-07-13T05:24:36;15.50;99.90
39525;DHT22;25203;50.754;6.978;2023-07-13T05:26:36;15.70;99.90
39525;DHT22;25203;50.754;6.978;2023-07-13T05:28:37;15.70;99.90
39525;DHT22;25203;50.754;6.978;2023-07-13T05:30:38;15.70;99.90
39525;DHT22;25203;50.754;6.978;2023-07-13T05:32:38;15.70;99.90
39525;DHT22;25203;50.754;6.978;2023-07-13T05:34:39;15.80;99.90
39525;DHT22;25203;50.754;6.978;2023-07-13T05:36:40;15.80;99.90
39525;DHT22;25203;50.754;6.978;2023-07-13T05:38:41;15.70;99.90
39525;DHT22;25203;50.754;6.978;2023-07-13T05:40:46;15.80;99.90
39525;DHT22;25203;50.754;6.978;2023-07-13T05:42:47;15.70;99.90
39525;DHT22;25203;50.754;6.978;2023-07-13T05:44:47;15.80;99.90
39525;DHT22;25203;50.754;6.978;2023-07-13T05:46:48;15.90;99.90
39525;DHT22;25203;50.754;6.978;2023-07-13T05:48:49;16.10;99.90
39525;DHT22;25203;50.754;6.978;2023-07-13T05:50:50;16.20;99.90
39525;DHT22;25203;50.754;6.978;2023-07-13T05:52:50;16.40;99.90
39525;DHT22;25203;50.754;6.978;2023-07-13T05:54:52;16.50;99.90
39525;DHT22;25203;50.754;6.978;2023-07-13T05:56:53;16.70;99.90
39525;DHT22;25203;50.754;6.978;2023-07-13T05:58:53;16.70;99.90
39525;DHT22;25203;50.754;6.978;2023-07-13T06:01:03;16.80;99.90
39525;DHT22;25203;50.754;6.978;2023-07-13T06:03:04;16.90;99.90
39525;DHT22;25203;50.754;6.978;2023-07-13T06:05:07;17.00;99.90
39525;DHT22;25203;50.754;6.978;2023-07-13T06:07:07;17.10;99.90
39525;DHT22;25203;50.754;6.978;2023-07-13T06:09:08;17.20;99.90
39525;DHT22;25203;50.754;6.978;2023-07-13T06:11:24;17.30;99.90
39525;DHT22;25203;50.754;6.978;2023-07-13T06:13:25;17.30;99.90
39525;DHT22;25203;50.754;6.978;2023-07-13T06:15:26;17.40;99.90
39525;DHT22;25203;50.754;6.978;2023-07-13T06:17:27;17.40;99.90
39525;DHT22;25203;50.754;6.978;2023-07-13T06:19:28;17.50;99.90
39525;DHT22;25203;50.754;6.978;2023-07-13T06:21:29;17.60;99.90
39525;DHT22;25203;50.754;6.978;2023-07-13T06:23:29;17.70;99.90
39525;DHT22;25203;50.754;6.978;2023-07-13T06:25:30;17.80;99.90
39525;DHT22;25203;50.754;6.978;2023-07-13T06:27:30;18.00;99.90
39525;DHT22;25203;50.754;6.978;2023-07-13T06:29:31;17.90;99.70
39525;DHT22;25203;50.754;6.978;2023-07-13T06:31:32;17.90;99.90
39525;DHT22;25203;50.754;6.978;2023-07-13T06:33:32;18.00;99.90
39525;DHT22;25203;50.754;6.978;2023-07-13T06:35:33;18.00;99.90
39525;DHT22;25203;50.754;6.978;2023-07-13T06:37:34;18.00;99.90
39525;DHT22;25203;50.754;6.978;2023-07-13T06:39:34;18.00;99.90
39525;DHT22;25203;50.754;6.978;2023-07-13T06:41:35;18.00;99.90
39525;DHT22;25203;50.754;6.978;2023-07-13T06:43:35;18.10;99.90
39525;DHT22;25203;50.754;6.978;2023-07-13T06:45:41;18.20;99.70
39525;DHT22;25203;50.754;6.978;2023-07-13T06:47:42;18.30;99.90
39525;DHT22;25203;50.754;6.978;2023-07-13T06:49:43;18.40;99.30
39525;DHT22;25203;50.754;6.978;2023-07-13T06:51:43;18.50;99.30
39525;DHT22;25203;50.754;6.978;2023-07-13T06:53:44;18.60;99.10
39525;DHT22;25203;50.754;6.978;2023-07-13T06:55:45;18.60;98.60
39525;DHT22;25203;50.754;6.978;2023-07-13T06:57:46;18.60;98.80
39525;DHT22;25203;50.754;6.978;2023-07-13T06:59:46;18.70;99.10
39525;DHT22;25203;50.754;6.978;2023-07-13T07:01:47;18.80;99.00
39525;DHT22;25203;50.754;6.978;2023-07-13T07:03:47;18.90;98.00
39525;DHT22;25203;50.754;6.978;2023-07-13T07:05:48;19.00;98.10
39525;DHT22;25203;50.754;6.978;2023-07-13T07:07:54;19.00;97.70
39525;DHT22;25203;50.754;6.978;2023-07-13T07:09:54;18.90;97.90
39525;DHT22;25203;50.754;6.978;2023-07-13T07:11:55;19.00;98.30
39525;DHT22;25203;50.754;6.978;2023-07-13T07:13:56;19.10;97.80
39525;DHT22;25203;50.754;6.978;2023-07-13T07:15:56;19.20;97.70
39525;DHT22;25203;50.754;6.978;2023-07-13T07:17:57;19.40;97.60
39525;DHT22;25203;50.754;6.978;2023-07-13T07:19:57;19.50;97.30
39525;DHT22;25203;50.754;6.978;2023-07-13T07:21:58;19.60;97.00
39525;DHT22;25203;50.754;6.978;2023-07-13T07:23:59;19.60;96.60
39525;DHT22;25203;50.754;6.978;2023-07-13T07:26:00;19.50;97.20
39525;DHT22;25203;50.754;6.978;2023-07-13T07:28:00;19.50;97.10
39525;DHT22;25203;50.754;6.978;2023-07-13T07:30:01;19.70;97.50
39525;DHT22;25203;50.754;6.978;2023-07-13T07:32:02;19.90;97.30
39525;DHT22;25203;50.754;6.978;2023-07-13T07:34:02;20.10;96.00
39525;DHT22;25203;50.754;6.978;2023-07-13T07:36:04;20.20;96.10
39525;DHT22;25203;50.754;6.978;2023-07-13T07:38:04;20.10;96.10
39525;DHT22;25203;50.754;6.978;2023-07-13T07:40:05;20.10;96.50
39525;DHT22;25203;50.754;6.978;2023-07-13T07:42:07;20.30;96.10
39525;DHT22;25203;50.754;6.978;2023-07-13T07:44:08;20.60;95.70
39525;DHT22;25203;50.754;6.978;2023-07-13T07:46:10;20.60;95.30
39525;DHT22;25203;50.754;6.978;2023-07-13T07:48:10;20.80;95.20
39525;DHT22;25203;50.754;6.978;2023-07-13T07:50:11;20.90;95.30
39525;DHT22;25203;50.754;6.978;2023-07-13T07:52:11;21.10;94.80
39525;DHT22;25203;50.754;6.978;2023-07-13T07:54:12;21.30;95.20
39525;DHT22;25203;50.754;6.978;2023-07-13T07:56:13;21.30;94.40
39525;DHT22;25203;50.754;6.978;2023-07-13T07:58:16;21.50;93.60
39525;DHT22;25203;50.754;6.978;2023-07-13T08:00:17;21.70;93.60
39525;DHT22;25203;50.754;6.978;2023-07-13T08:02:21;21.70;92.60
39525;DHT22;25203;50.754;6.978;2023-07-13T08:04:22;21.80;93.10
39525;DHT22;25203;50.754;6.978;2023-07-13T08:06:23;21.80;92.40
39525;DHT22;25203;50.754;6.978;2023-07-13T08:08:24;21.80;92.30
39525;DHT22;25203;50.754;6.978;2023-07-13T08:10:24;21.80;91.70
39525;DHT22;25203;50.754;6.978;2023-07-13T08:12:25;21.80;92.00
39525;DHT22;25203;50.754;6.978;2023-07-13T08:14:26;21.60;91.80
39525;DHT22;25203;50.754;6.978;2023-07-13T08:16:26;21.70;92.10
39525;DHT22;25203;50.754;6.978;2023-07-13T08:18:27;21.60;91.50
39525;DHT22;25203;50.754;6.978;2023-07-13T08:20:30;21.80;91.70
39525;DHT22;25203;50.754;6.978;2023-07-13T08:22:31;22.00;91.20
39525;DHT22;25203;50.754;6.978;2023-07-13T08:24:32;22.40;91.30
39525;DHT22;25203;50.754;6.978;2023-07-13T08:26:32;22.80;90.80
39525;DHT22;25203;50.754;6.978;2023-07-13T08:28:33;23.40;90.30
39525;DHT22;25203;50.754;6.978;2023-07-13T08:30:34;24.10;88.10
39525;DHT22;25203;50.754;6.978;2023-07-13T08:32:36;25.00;85.00
39525;DHT22;25203;50.754;6.978;2023-07-13T08:34:37;25.30;80.20
39525;DHT22;25203;50.754;6.978;2023-07-13T08:36:37;25.90;77.30
39525;DHT22;25203;50.754;6.978;2023-07-13T08:38:38;26.10;75.80
39525;DHT22;25203;50.754;6.978;2023-07-13T08:40:39;26.60;75.30
39525;DHT22;25203;50.754;6.978;2023-07-13T08:42:56;26.60;74.60
39525;DHT22;25203;50.754;6.978;2023-07-13T08:46:58;25.40;73.20
39525;DHT22;25203;50.754;6.978;2023-07-13T08:49:03;24.80;75.70
39525;DHT22;25203;50.754;6.978;2023-07-13T08:53:56;24.00;76.80
39525;DHT22;25203;50.754;6.978;2023-07-13T08:55:59;24.10;76.90
39525;DHT22;25203;50.754;6.978;2023-07-13T08:58:05;24.30;76.40
39525;DHT22;25203;50.754;6.978;2023-07-13T09:00:13;24.40;77.00
39525;DHT22;25203;50.754;6.978;2023-07-13T09:04:36;24.60;77.10
39525;DHT22;25203;50.754;6.978;2023-07-13T09:07:02;24.70;76.60
39525;DHT22;25203;50.754;6.978;2023-07-13T09:09:20;25.00;75.40
39525;DHT22;25203;50.754;6.978;2023-07-13T09:11:33;25.60;75.10
39525;DHT22;25203;50.754;6.978;2023-07-13T09:13:51;26.50;72.80
39525;DHT22;25203;50.754;6.978;2023-07-13T09:15:53;26.40;71.60
39525;DHT22;25203;50.754;6.978;2023-07-13T09:17:55;26.60;71.40
39525;DHT22;25203;50.754;6.978;2023-07-13T09:22:12;27.20;71.30
39525;DHT22;25203;50.754;6.978;2023-07-13T09:24:29;27.40;71.50
39525;DHT22;25203;50.754;6.978;2023-07-13T09:26:34;27.80;69.30
39525;DHT22;25203;50.754;6.978;2023-07-13T09:28:39;27.80;69.90
39525;DHT22;25203;50.754;6.978;2023-07-13T09:31:04;28.60;68.50
39525;DHT22;25203;50.754;6.978;2023-07-13T09:33:06;28.90;67.60
39525;DHT22;25203;50.754;6.978;2023-07-13T09:35:11;28.30;67.70
39525;DHT22;25203;50.754;6.978;2023-07-13T09:37:12;27.60;68.10
39525;DHT22;25203;50.754;6.978;2023-07-13T09:39:27;26.70;70.30
39525;DHT22;25203;50.754;6.978;2023-07-13T09:42:20;26.10;70.50
39525;DHT22;25203;50.754;6.978;2023-07-13T09:44:11;25.30;72.40
39525;DHT22;25203;50.754;6.978;2023-07-13T09:46:22;26.10;72.10
39525;DHT22;25203;50.754;6.978;2023-07-13T09:48:22;26.10;71.30
39525;DHT22;25203;50.754;6.978;2023-07-13T09:50:24;26.50;71.00
39525;DHT22;25203;50.754;6.978;2023-07-13T09:52:26;26.20;71.60
39525;DHT22;25203;50.754;6.978;2023-07-13T09:54:28;25.90;71.70
39525;DHT22;25203;50.754;6.978;2023-07-13T09:56:29;25.70;71.40
39525;DHT22;25203;50.754;6.978;2023-07-13T09:58:30;25.80;71.40
39525;DHT22;25203;50.754;6.978;2023-07-13T10:00:32;26.30;71.50
39525;DHT22;25203;50.754;6.978;2023-07-13T10:02:35;26.40;70.70
39525;DHT22;25203;50.754;6.978;2023-07-13T10:04:36;26.20;70.90
39525;DHT22;25203;50.754;6.978;2023-07-13T10:06:36;25.80;71.90
39525;DHT22;25203;50.754;6.978;2023-07-13T10:08:37;25.30;73.00
39525;DHT22;25203;50.754;6.978;2023-07-13T10:10:38;24.60;73.00
39525;DHT22;25203;50.754;6.978;2023-07-13T10:12:38;24.40;74.60
39525;DHT22;25203;50.754;6.978;2023-07-13T10:14:41;24.10;74.40
39525;DHT22;25203;50.754;6.978;2023-07-13T10:16:44;24.10;74.50
39525;DHT22;25203;50.754;6.978;2023-07-13T10:18:59;24.10;74.90
39525;DHT22;25203;50.754;6.978;2023-07-13T10:22:11;25.40;73.90
39525;DHT22;25203;50.754;6.978;2023-07-13T10:24:24;26.60;71.10
39525;DHT22;25203;50.754;6.978;2023-07-13T10:26:31;26.40;70.50
39525;DHT22;25203;50.754;6.978;2023-07-13T10:28:36;26.40;70.60
39525;DHT22;25203;50.754;6.978;2023-07-13T10:30:40;25.70;70.20
39525;DHT22;25203;50.754;6.978;2023-07-13T10:32:43;25.10;71.20
39525;DHT22;25203;50.754;6.978;2023-07-13T10:34:46;24.90;72.00
39525;DHT22;25203;50.754;6.978;2023-07-13T10:36:48;25.10;72.90
39525;DHT22;25203;50.754;6.978;2023-07-13T10:38:51;25.20;69.10
39525;DHT22;25203;50.754;6.978;2023-07-13T10:41:05;25.30;68.40
39525;DHT22;25203;50.754;6.978;2023-07-13T10:43:18;25.50;69.60
39525;DHT22;25203;50.754;6.978;2023-07-13T10:45:22;26.10;67.30
39525;DHT22;25203;50.754;6.978;2023-07-13T10:47:24;25.80;67.40
39525;DHT22;25203;50.754;6.978;2023-07-13T10:49:27;25.40;68.40
39525;DHT22;25203;50.754;6.978;2023-07-13T10:51:30;24.90;68.20
39525;DHT22;25203;50.754;6.978;2023-07-13T10:53:33;25.40;67.10
39525;DHT22;25203;50.754;6.978;2023-07-13T10:55:40;26.20;67.00
39525;DHT22;25203;50.754;6.978;2023-07-13T10:57:54;27.10;65.80
39525;DHT22;25203;50.754;6.978;2023-07-13T11:02:21;27.90;62.60
39525;DHT22;25203;50.754;6.978;2023-07-13T11:04:24;26.80;63.40
39525;DHT22;25203;50.754;6.978;2023-07-13T11:08:36;25.40;65.50
39525;DHT22;25203;50.754;6.978;2023-07-13T11:10:48;24.70;65.50
39525;DHT22;25203;50.754;6.978;2023-07-13T11:12:52;24.20;67.00
39525;DHT22;25203;50.754;6.978;2023-07-13T11:16:58;23.60;67.60
39525;DHT22;25203;50.754;6.978;2023-07-13T11:21:20;23.00;68.60
39525;DHT22;25203;50.754;6.978;2023-07-13T11:23:28;22.80;68.90
39525;DHT22;25203;50.754;6.978;2023-07-13T11:25:31;22.70;69.30
39525;DHT22;25203;50.754;6.978;2023-07-13T11:27:40;22.70;69.80
39525;DHT22;25203;50.754;6.978;2023-07-13T11:29:41;22.60;70.20
39525;DHT22;25203;50.754;6.978;2023-07-13T11:31:42;22.60;70.40
39525;DHT22;25203;50.754;6.978;2023-07-13T11:33:52;22.40;70.70
39525;DHT22;25203;50.754;6.978;2023-07-13T11:36:15;22.40;70.70
39525;DHT22;25203;50.754;6.978;2023-07-13T11:38:22;22.50;70.70
39525;DHT22;25203;50.754;6.978;2023-07-13T11:40:27;22.50;69.50
39525;DHT22;25203;50.754;6.978;2023-07-13T11:42:30;22.30;69.60
39525;DHT22;25203;50.754;6.978;2023-07-13T11:44:33;22.30;69.90
39525;DHT22;25203;50.754;6.978;2023-07-13T11:46:34;22.20;68.50
39525;DHT22;25203;50.754;6.978;2023-07-13T11:48:35;22.10;69.60
39525;DHT22;25203;50.754;6.978;2023-07-13T11:50:37;22.00;69.80
39525;DHT22;25203;50.754;6.978;2023-07-13T11:52:38;22.00;71.00
39525;DHT22;25203;50.754;6.978;2023-07-13T11:54:55;22.00;71.50
39525;DHT22;25203;50.754;6.978;2023-07-13T11:57:06;22.10;70.70
39525;DHT22;25203;50.754;6.978;2023-07-13T11:59:12;22.20;71.60
39525;DHT22;25203;50.754;6.978;2023-07-13T12:01:44;22.20;72.70
39525;DHT22;25203;50.754;6.978;2023-07-13T12:03:45;22.40;71.80
39525;DHT22;25203;50.754;6.978;2023-07-13T12:06:01;22.50;71.70
39525;DHT22;25203;50.754;6.978;2023-07-13T12:08:09;22.50;71.10
39525;DHT22;25203;50.754;6.978;2023-07-13T12:12:21;22.50;72.70
39525;DHT22;25203;50.754;6.978;2023-07-13T12:14:22;22.50;72.90
39525;DHT22;25203;50.754;6.978;2023-07-13T12:16:28;22.40;73.10
39525;DHT22;25203;50.754;6.978;2023-07-13T12:18:31;22.10;73.90
39525;DHT22;25203;50.754;6.978;2023-07-13T12:20:38;22.00;74.90
39525;DHT22;25203;50.754;6.978;2023-07-13T12:22:38;21.90;75.20
39525;DHT22;25203;50.754;6.978;2023-07-13T12:24:40;21.70;75.40
39525;DHT22;25203;50.754;6.978;2023-07-13T12:26:41;21.80;75.00
39525;DHT22;25203;50.754;6.978;2023-07-13T12:28:52;21.80;75.10
39525;DHT22;25203;50.754;6.978;2023-07-13T12:30:58;21.80;74.70
39525;DHT22;25203;50.754;6.978;2023-07-13T12:33:06;22.00;73.90
39525;DHT22;25203;50.754;6.978;2023-07-13T12:35:17;22.30;73.70
39525;DHT22;25203;50.754;6.978;2023-07-13T12:37:17;22.50;73.00
39525;DHT22;25203;50.754;6.978;2023-07-13T12:41:43;22.50;72.70
39525;DHT22;25203;50.754;6.978;2023-07-13T12:43:46;22.60;73.30
39525;DHT22;25203;50.754;6.978;2023-07-13T12:46:04;22.50;73.10
39525;DHT22;25203;50.754;6.978;2023-07-13T12:48:15;22.30;73.30
39525;DHT22;25203;50.754;6.978;2023-07-13T12:50:23;22.20;74.40
39525;DHT22;25203;50.754;6.978;2023-07-13T12:52:29;22.20;73.40
39525;DHT22;25203;50.754;6.978;2023-07-13T12:54:33;22.20;75.10
39525;DHT22;25203;50.754;6.978;2023-07-13T12:56:34;22.40;75.60
39525;DHT22;25203;50.754;6.978;2023-07-13T12:58:41;22.50;73.80
39525;DHT22;25203;50.754;6.978;2023-07-13T13:00:49;22.80;72.60
39525;DHT22;25203;50.754;6.978;2023-07-13T13:02:56;22.90;72.10
39525;DHT22;25203;50.754;6.978;2023-07-13T13:04:58;22.80;69.90
39525;DHT22;25203;50.754;6.978;2023-07-13T13:07:04;22.80;71.50
39525;DHT22;25203;50.754;6.978;2023-07-13T13:09:12;22.90;71.00
39525;DHT22;25203;50.754;6.978;2023-07-13T13:11:14;22.90;70.50
39525;DHT22;25203;50.754;6.978;2023-07-13T13:13:16;22.80;70.00
39525;DHT22;25203;50.754;6.978;2023-07-13T13:15:17;22.90;72.00
39525;DHT22;25203;50.754;6.978;2023-07-13T13:17:29;22.90;71.60
39525;DHT22;25203;50.754;6.978;2023-07-13T13:19:34;23.00;72.20
39525;DHT22;25203;50.754;6.978;2023-07-13T13:21:34;22.80;71.80